Portada
METAR-TAF:

METAR-TAF

Aeropuertos :

Aeropuerto de Florencia

Florencia, Italia

latitud: 43-48N, longitud: 011-12E, altitud: 40 m

Observación

El informe se hizo hace 16 minutos, a las 01:20 UTC
Viento 4 kt del este-sureste
Temperatura 7°C
Humedad 87%
Presión 1012 hPa
Visibilidad 10 km o más
sin nubes por debajo de 1500 m y sin presencia de cumulonimbus.

METAR: LIRQ 300120Z 12004KT CAVOK 07/05 Q1012

Hora: 03:36 (01:36 UTC)

Pronóstico

El informe se hizo hace 8 horas y 36 minutos, a las 17:00 UTC
Pronóstico válido del 29 a las 18 UTC al 30 a las 18 UTC
Viento 5 kt con dirección variable
Visibilidad 10 km o más
Nubes dispersas a una altura de 5000 ft
Temporalmente
del 30 a las 00 UTC al 30 a las 06 UTC
Visibilidad: 2000 m
neblina
Temporalmente
del 30 a las 12 UTC al 30 a las 16 UTC
tormenta, lluvia

TAF: LIRQ 291700Z 2918/3018 VRB05KT 9999 SCT050 TEMPO 3000/3006 2000 BR TEMPO 3012/3016 TSRA

Observaciones y pronósticos meteorológicos de más de 4000 aeropuertos (mensajes METAR y TAF).

Los puntos amarillos y rojos representan las estaciones disponibles.

Ponga el ratón en el punto deseado para ver el nombre de la estación.

Haga clic para ver las observaciones y los pronósticos meteorológicos.

Para cambiar el mapa : haga clic en los botones verdes con una cruz de color negro para hacer un zoom, en el botón verde con un guión para alejar o en las flechas verdes para mapas adyacentes.


METAR-TAF: